Finest — WCW8374 — position and weather

sailwx.info

Track history (hours):
 
Tides and Currents Weather Stations Pressure Air Temp Water Temp Dewpoint Dewpoint Depression Visibility Wind Speed Wind Dir Waves Ship Positions

Finest

Owner: NEW YORK FAST FERRY SERVICES INC, MAMARONECK, NY. More information available from US FCC via Universal Licensing System and Coast Guard Vessel Documentation Center.

Last reported at 2015-May-27 14:33 UTC. Time now 2015-May-27 15:31 UTC.
Position N 40°46' W 074°01'.

Length 38 m.

Type: High speed craft. MMSI: 366990590.

Date/timePositionNaut miles runAvg speedWind from/ knotsBaromVisibWave heightAir tempDewpointWater temp
2015-May-27 14:33N 40°46' W 074°01'0 0.2
2015-May-27 13:33N 40°46' W 074°01'7 6.9
2015-May-27 12:34N 40°39' W 074°02'4 3.5
2015-May-27 11:33N 40°36' W 074°03'10 4.8
2015-May-27 09:29N 40°26' W 074°05'11 1.0
2015-May-26 22:33N 40°37' W 074°03'4 4.3
2015-May-26 21:33N 40°32' W 074°04'10 9.8
2015-May-26 20:34N 40°42' W 074°00'5 4.5
2015-May-26 19:33N 40°46' W 074°01'0 0.0
2015-May-26 18:33N 40°46' W 074°01'0 0.0
2015-May-26 17:33N 40°46' W 074°01'0 0.0
2015-May-26 16:33N 40°46' W 074°01'0 0.0
2015-May-26 15:33N 40°46' W 074°01'0 0.0
2015-May-26 14:33N 40°46' W 074°01'0 0.0
2015-May-26 13:33N 40°46' W 074°01'7 6.9
2015-May-26 12:34N 40°39' W 074°02'4 4.2
2015-May-26 11:33N 40°35' W 074°03'9 9.4
2015-May-26 10:33N 40°26' W 074°05'0 0.1
2015-May-26 09:25N 40°26' W 074°05'  
2015-May-22 22:34N 40°33' W 074°02'4 3.8
2015-May-22 21:29N 40°29' W 074°04'1314.1
2015-May-22 20:34N 40°42' W 074°00'4 3.7
2015-May-22 19:33N 40°46' W 074°00'1714.8
2015-May-22 18:25N 40°29' W 074°04'910.7
2015-May-22 17:33N 40°38' W 074°03'8 7.8
2015-May-22 16:33N 40°46' W 074°00'0 0.0
2015-May-22 15:33N 40°46' W 074°00'1 0.7
2015-May-22 14:34N 40°46' W 074°01'0 0.0
2015-May-22 13:34N 40°46' W 074°01'6 6.0
2015-May-22 12:34N 40°40' W 074°01'5 5.0
2015-May-22 11:34N 40°35' W 074°03'1 0.0
2015-May-21 22:33N 40°35' W 074°03'3 3.0
2015-May-21 21:32N 40°32' W 074°04'10 9.9
2015-May-21 20:34N 40°41' W 074°01'5 4.9
2015-May-21 19:33N 40°46' W 074°01'0 0.0
2015-May-21 18:33N 40°46' W 074°01'0 0.0
2015-May-21 17:33N 40°46' W 074°01'0 0.0
2015-May-21 16:33N 40°46' W 074°01'0 0.0
2015-May-21 15:33N 40°46' W 074°01'0 0.3
2015-May-21 14:33N 40°46' W 074°01'11 7.8
2015-May-21 13:08N 40°35' W 074°03'610.3
2015-May-21 12:34N 40°41' W 074°01'5 5.3
2015-May-21 11:34N 40°36' W 074°03'1 0.1
2015-May-20 22:34N 40°37' W 074°03'5 2.5
2015-May-20 20:33N 40°41' W 074°01'5 4.9
2015-May-20 19:34N 40°46' W 074°01'0 0.0
2015-May-20 18:34N 40°46' W 074°01'0 0.0
2015-May-20 17:34N 40°46' W 074°01'0 0.0
2015-May-20 16:34N 40°46' W 074°01'0 0.0
2015-May-20 15:33N 40°46' W 074°01'0 0.0
2015-May-20 14:34N 40°46' W 074°01'0 0.0
2015-May-20 13:34N 40°46' W 074°01'7 6.5
2015-May-20 12:34N 40°40' W 074°01'3 3.3
2015-May-20 11:33N 40°37' W 074°03'1 0.1
2015-May-19 22:33N 40°36' W 074°03'2 2.0
2015-May-19 21:32N 40°34' W 074°04'8 8.2
2015-May-19 20:34N 40°41' W 074°01'5 4.8
2015-May-19 19:34N 40°46' W 074°01'0 0.0
2015-May-19 18:33N 40°46' W 074°01'0 0.0
2015-May-19 17:33N 40°46' W 074°01'0 0.0
2015-May-19 16:34N 40°46' W 074°01'0 0.0
2015-May-19 15:33N 40°46' W 074°01'4 3.5
2015-May-19 14:33N 40°43' W 074°02'8 5.7
2015-May-19 13:13N 40°35' W 074°03'5 7.4
2015-May-19 12:34N 40°40' W 074°02'4 3.6
2015-May-19 11:33N 40°37' W 074°03'1 0.1
2015-May-18 22:34N 40°35' W 074°03'4 4.4
2015-May-18 21:32N 40°31' W 074°04'1010.3
2015-May-18 20:34N 40°41' W 074°01'5 5.3
2015-May-18 19:33N 40°46' W 074°01'0 0.0
2015-May-18 18:33N 40°46' W 074°01'0 0.0
2015-May-18 17:33N 40°46' W 074°01'0 0.0
2015-May-18 16:33N 40°46' W 074°01'0 0.0
2015-May-18 15:33N 40°46' W 074°01'1 0.6
2015-May-18 14:33N 40°46' W 074°00'1510.6
2015-May-18 13:08N 40°31' W 074°04'1526.3
2015-May-18 12:34N 40°46' W 074°00'3 1.4
2015-May-18 10:34N 40°43' W 074°01'1716.3
2015-May-18 09:31N 40°26' W 074°05'  
Track history (hours):
 
Tides and Currents Weather Stations Pressure Air Temp Water Temp Dewpoint Dewpoint Depression Visibility Wind Speed Wind Dir Waves Ship Positions

Finest

Owner: NEW YORK FAST FERRY SERVICES INC, MAMARONECK, NY. More information available from US FCC via Universal Licensing System and Coast Guard Vessel Documentation Center.

Last reported at 2015-May-27 14:33 UTC. Time now 2015-May-27 15:31 UTC.
Position N 40°46' W 074°01'.

Length 38 m.

Type: High speed craft. MMSI: 366990590.

Date/timePositionNaut miles runAvg speedWind from/ knotsBaromVisibWave heightAir tempDewpointWater temp
2015-May-27 14:33N 40°46' W 074°01'0 0.2
2015-May-27 13:33N 40°46' W 074°01'7 6.9
2015-May-27 12:34N 40°39' W 074°02'4 3.5
2015-May-27 11:33N 40°36' W 074°03'10 4.8
2015-May-27 09:29N 40°26' W 074°05'11 1.0
2015-May-26 22:33N 40°37' W 074°03'4 4.3
2015-May-26 21:33N 40°32' W 074°04'10 9.8
2015-May-26 20:34N 40°42' W 074°00'5 4.5
2015-May-26 19:33N 40°46' W 074°01'0 0.0
2015-May-26 18:33N 40°46' W 074°01'0 0.0
2015-May-26 17:33N 40°46' W 074°01'0 0.0
2015-May-26 16:33N 40°46' W 074°01'0 0.0
2015-May-26 15:33N 40°46' W 074°01'0 0.0
2015-May-26 14:33N 40°46' W 074°01'0 0.0
2015-May-26 13:33N 40°46' W 074°01'7 6.9
2015-May-26 12:34N 40°39' W 074°02'4 4.2
2015-May-26 11:33N 40°35' W 074°03'9 9.4
2015-May-26 10:33N 40°26' W 074°05'0 0.1
2015-May-26 09:25N 40°26' W 074°05'  
2015-May-22 22:34N 40°33' W 074°02'4 3.8
2015-May-22 21:29N 40°29' W 074°04'1314.1
2015-May-22 20:34N 40°42' W 074°00'4 3.7
2015-May-22 19:33N 40°46' W 074°00'1714.8
2015-May-22 18:25N 40°29' W 074°04'910.7
2015-May-22 17:33N 40°38' W 074°03'8 7.8
2015-May-22 16:33N 40°46' W 074°00'0 0.0
2015-May-22 15:33N 40°46' W 074°00'1 0.7
2015-May-22 14:34N 40°46' W 074°01'0 0.0
2015-May-22 13:34N 40°46' W 074°01'6 6.0
2015-May-22 12:34N 40°40' W 074°01'5 5.0
2015-May-22 11:34N 40°35' W 074°03'1 0.0
2015-May-21 22:33N 40°35' W 074°03'3 3.0
2015-May-21 21:32N 40°32' W 074°04'10 9.9
2015-May-21 20:34N 40°41' W 074°01'5 4.9
2015-May-21 19:33N 40°46' W 074°01'0 0.0
2015-May-21 18:33N 40°46' W 074°01'0 0.0
2015-May-21 17:33N 40°46' W 074°01'0 0.0
2015-May-21 16:33N 40°46' W 074°01'0 0.0
2015-May-21 15:33N 40°46' W 074°01'0 0.3
2015-May-21 14:33N 40°46' W 074°01'11 7.8
2015-May-21 13:08N 40°35' W 074°03'610.3
2015-May-21 12:34N 40°41' W 074°01'5 5.3
2015-May-21 11:34N 40°36' W 074°03'1 0.1
2015-May-20 22:34N 40°37' W 074°03'5 2.5
2015-May-20 20:33N 40°41' W 074°01'5 4.9
2015-May-20 19:34N 40°46' W 074°01'0 0.0
2015-May-20 18:34N 40°46' W 074°01'0 0.0
2015-May-20 17:34N 40°46' W 074°01'0 0.0
2015-May-20 16:34N 40°46' W 074°01'0 0.0
2015-May-20 15:33N 40°46' W 074°01'0 0.0
2015-May-20 14:34N 40°46' W 074°01'0 0.0
2015-May-20 13:34N 40°46' W 074°01'7 6.5
2015-May-20 12:34N 40°40' W 074°01'3 3.3
2015-May-20 11:33N 40°37' W 074°03'1 0.1
2015-May-19 22:33N 40°36' W 074°03'2 2.0
2015-May-19 21:32N 40°34' W 074°04'8 8.2
2015-May-19 20:34N 40°41' W 074°01'5 4.8
2015-May-19 19:34N 40°46' W 074°01'0 0.0
2015-May-19 18:33N 40°46' W 074°01'0 0.0
2015-May-19 17:33N 40°46' W 074°01'0 0.0
2015-May-19 16:34N 40°46' W 074°01'0 0.0
2015-May-19 15:33N 40°46' W 074°01'4 3.5
2015-May-19 14:33N 40°43' W 074°02'8 5.7
2015-May-19 13:13N 40°35' W 074°03'5 7.4
2015-May-19 12:34N 40°40' W 074°02'4 3.6
2015-May-19 11:33N 40°37' W 074°03'1 0.1
2015-May-18 22:34N 40°35' W 074°03'4 4.4
2015-May-18 21:32N 40°31' W 074°04'1010.3
2015-May-18 20:34N 40°41' W 074°01'5 5.3
2015-May-18 19:33N 40°46' W 074°01'0 0.0
2015-May-18 18:33N 40°46' W 074°01'0 0.0
2015-May-18 17:33N 40°46' W 074°01'0 0.0
2015-May-18 16:33N 40°46' W 074°01'0 0.0
2015-May-18 15:33N 40°46' W 074°01'1 0.6
2015-May-18 14:33N 40°46' W 074°00'1510.6
2015-May-18 13:08N 40°31' W 074°04'1526.3
2015-May-18 12:34N 40°46' W 074°00'3 1.4
2015-May-18 10:34N 40°43' W 074°01'1716.3
2015-May-18 09:31N 40°26' W 074°05'  

Dump ship's entire track history